Huinca Renanco, Argentina
Current Conditions -  °F | °C
As of 12:00 AM on Friday 28 Nov 2014 (Local Time) from SAOC Reporting Station
Clear Clear  
Wind Chill: 73°   Ceiling: Unl
Heat Index: 73°   Visibility: 6mi
Dew Point: 43°   Wind: 12mph
Humidity: 33%   Direction: 320°NW
Pressure: 29.88"   Gusts: NA
Location:  34.83°S, 64.38°W
Report Text: SAOC 280300Z 32010KT CAVOK 23/06 Q1012
Loading
Personal Weather Stations






























Interactive Weather Map New forecast layout! Learn more

10-Day Weather Forecast

Advertisements
Track Severe Weather on mobile